Terminal Aerodrome Forecast
Issued by NWS

Home | Current Version | Previous Version | Graphics & Text | Print | Product List | Glossary On
Versions: 1 2 3 4 5 6 7 8 9 10 11 12 13 14 15 16 17 18 19 20 21 22 23 24 25 26 27 28 29 30 31 32 33
000
FTUS43 KLOT 021122
TAFMDW
TAF
KMDW 021122Z 0212/0312 22006KT P6SM FEW100 SCT250
     FM021500 24010KT P6SM SCT050 BKN250
     FM030100 22005KT P6SM SCT050 BKN250
     FM031000 23004KT P6SM SCT050 BKN120 PROB30 0310/0312 5SM -TSRA
      BKN050CB=

USA.gov is the U.S. government's official web portal to all federal, state and local government web resources and services.